createdAt,value
2018-02-18T00:00:29.693Z,29.67
2018-02-18T00:02:55.958Z,25.83
2018-02-18T00:05:22.202Z,27.83
2018-02-18T00:07:48.476Z,28.90
2018-02-18T00:10:14.725Z,30.17
2018-02-18T00:12:41.718Z,27.00
2018-02-18T00:15:11.853Z,27.58
2018-02-18T00:17:38.085Z,25.98
2018-02-18T00:20:04.285Z,27.25
2018-02-18T00:22:30.640Z,25.15
2018-02-18T00:24:57.178Z,26.25
2018-02-18T00:27:24.261Z,24.45
2018-02-18T00:29:50.587Z,25.55
2018-02-18T00:32:16.816Z,24.12
2018-02-18T00:34:43.031Z,25.83
2018-02-18T00:37:09.316Z,25.77
2018-02-18T00:39:35.592Z,25.10
2018-02-18T00:42:01.831Z,26.30
2018-02-18T00:44:28.038Z,26.65
2018-02-18T00:46:54.259Z,24.55
2018-02-18T00:49:20.565Z,25.95
2018-02-18T00:51:46.794Z,24.12
2018-02-18T00:54:13.017Z,24.60
2018-02-18T00:56:40.353Z,22.65
2018-02-18T00:59:06.650Z,22.33
2018-02-18T01:01:32.871Z,23.10
2018-02-18T01:03:59.102Z,24.73
2018-02-18T01:06:25.285Z,23.50
2018-02-18T01:08:52.283Z,25.17
2018-02-18T01:11:18.491Z,22.02
2018-02-18T01:13:44.730Z,21.80
2018-02-18T01:16:10.930Z,22.95
2018-02-18T01:18:37.193Z,22.62
2018-02-18T01:21:03.517Z,22.08
2018-02-18T01:23:29.732Z,21.58
2018-02-18T01:25:55.956Z,22.50
2018-02-18T01:28:22.978Z,22.37
2018-02-18T01:30:49.357Z,23.23
2018-02-18T01:33:15.592Z,24.98
2018-02-18T01:35:41.802Z,23.05
2018-02-18T01:38:08.789Z,23.65
2018-02-18T01:40:35.017Z,24.90
2018-02-18T01:43:01.250Z,23.33
2018-02-18T01:45:27.826Z,24.27
2018-02-18T01:47:54.156Z,23.90
2018-02-18T01:50:32.785Z,22.35
2018-02-18T01:52:59.034Z,22.95
2018-02-18T01:55:25.273Z,20.40
2018-02-18T01:57:51.521Z,20.35
2018-02-18T02:00:17.750Z,22.27
2018-02-18T02:02:44.002Z,20.50
2018-02-18T02:05:11.021Z,22.80
2018-02-18T02:07:37.261Z,22.40
2018-02-18T02:10:04.310Z,23.20
2018-02-18T02:12:30.534Z,21.67
2018-02-18T02:14:56.863Z,21.55
2018-02-18T02:17:23.114Z,20.05
2018-02-18T02:19:50.190Z,24.80
2018-02-18T02:22:16.429Z,22.17
2018-02-18T02:24:43.416Z,22.80
2018-02-18T02:27:09.707Z,29.40
2018-02-18T02:29:35.930Z,24.45
2018-02-18T02:32:02.174Z,22.92
2018-02-18T02:34:28.490Z,23.38
2018-02-18T02:36:54.734Z,21.08
2018-02-18T02:39:20.973Z,21.35
2018-02-18T02:41:47.185Z,22.55
2018-02-18T02:44:13.443Z,21.30
2018-02-18T02:46:39.655Z,22.13
2018-02-18T02:49:05.883Z,21.65
2018-02-18T02:51:32.863Z,21.50
2018-02-18T02:53:59.403Z,20.60
2018-02-18T02:56:25.682Z,21.98
2018-02-18T02:58:51.938Z,20.80
2018-02-18T03:01:18.172Z,21.98
2018-02-18T03:03:44.489Z,24.35
2018-02-18T03:06:10.747Z,20.73
2018-02-18T03:08:36.951Z,21.05
2018-02-18T03:11:03.933Z,20.77
2018-02-18T03:13:30.202Z,21.27
2018-02-18T03:15:56.478Z,20.75
2018-02-18T03:18:22.705Z,20.08
2018-02-18T03:20:48.934Z,22.42
2018-02-18T03:23:15.205Z,20.73
2018-02-18T03:25:42.174Z,19.00
2018-02-18T03:28:08.394Z,21.27
2018-02-18T03:30:34.671Z,19.40
2018-02-18T03:33:00.935Z,20.33
2018-02-18T03:35:27.170Z,20.70
2018-02-18T03:37:54.138Z,20.20
2018-02-18T03:40:20.360Z,20.05
2018-02-18T03:42:46.637Z,19.85
2018-02-18T03:45:12.857Z,20.98
2018-02-18T03:47:39.104Z,20.40
2018-02-18T03:50:05.338Z,17.85
2018-02-18T03:52:32.353Z,19.48
2018-02-18T03:54:58.574Z,20.23
2018-02-18T03:57:24.825Z,19.40
2018-02-18T03:59:51.038Z,20.48
2018-02-18T04:02:17.266Z,19.48
2018-02-18T04:04:43.530Z,17.48
2018-02-18T04:07:09.769Z,18.80
2018-02-18T04:09:35.986Z,20.17
2018-02-18T04:12:02.233Z,20.30
2018-02-18T04:14:28.602Z,18.75
2018-02-18T04:16:54.833Z,20.12
2018-02-18T04:19:21.049Z,19.98
2018-02-18T04:21:47.283Z,20.25
2018-02-18T04:24:14.209Z,18.80
2018-02-18T04:26:41.153Z,20.37
2018-02-18T04:29:07.375Z,21.00
2018-02-18T04:31:34.341Z,21.00
2018-02-18T04:34:00.548Z,20.15
2018-02-18T04:36:26.775Z,21.27
2018-02-18T04:38:53.037Z,19.23
2018-02-18T04:41:19.262Z,20.08
2018-02-18T04:43:45.513Z,19.37
2018-02-18T04:46:11.724Z,20.12
2018-02-18T04:48:37.970Z,19.85
2018-02-18T04:51:04.186Z,19.73
2018-02-18T04:53:30.422Z,18.35
2018-02-18T04:55:56.646Z,20.08
2018-02-18T04:58:22.854Z,19.33
2018-02-18T05:00:49.881Z,18.85
2018-02-18T05:03:16.079Z,18.52
2018-02-18T05:05:42.346Z,23.02
2018-02-18T05:08:09.274Z,19.92
2018-02-18T05:10:35.493Z,19.67
2018-02-18T05:13:01.722Z,20.88
2018-02-18T05:15:27.949Z,18.08
2018-02-18T05:17:54.168Z,18.70
2018-02-18T05:20:20.413Z,19.60
2018-02-18T05:22:46.645Z,17.40
2018-02-18T05:25:12.870Z,19.30
2018-02-18T05:27:39.848Z,19.10
2018-02-18T05:30:06.066Z,18.17
2018-02-18T05:32:32.307Z,17.52
2018-02-18T05:34:58.525Z,17.10
2018-02-18T05:37:25.509Z,18.45
2018-02-18T05:39:51.699Z,17.02
2018-02-18T05:42:18.719Z,16.83
2018-02-18T05:44:44.938Z,15.70
2018-02-18T05:47:11.142Z,15.45
2018-02-18T05:49:38.124Z,15.27
2018-02-18T05:52:05.105Z,17.77
2018-02-18T05:54:31.322Z,16.17
2018-02-18T05:56:58.342Z,16.65
2018-02-18T05:59:24.565Z,16.08
2018-02-18T06:01:50.794Z,16.65
2018-02-18T06:04:17.829Z,17.35
2018-02-18T06:06:44.033Z,16.20
2018-02-18T06:09:10.266Z,16.75
2018-02-18T06:11:36.489Z,18.98
2018-02-18T06:14:02.717Z,16.87
2018-02-18T06:16:29.682Z,17.33
2018-02-18T06:18:55.922Z,16.50
2018-02-18T06:21:22.131Z,16.05
2018-02-18T06:23:48.366Z,16.25
2018-02-18T06:26:14.654Z,16.37
2018-02-18T06:28:41.625Z,16.33
2018-02-18T06:31:07.880Z,17.60
2018-02-18T06:33:34.232Z,16.00
2018-02-18T06:36:00.495Z,16.85
2018-02-18T06:38:26.693Z,17.55
2018-02-18T06:40:52.933Z,18.05
2018-02-18T06:43:19.905Z,18.10
2018-02-18T06:45:46.873Z,17.58
2018-02-18T06:48:13.079Z,17.92
2018-02-18T06:50:40.046Z,18.30
2018-02-18T06:53:06.286Z,19.05
2018-02-18T06:55:32.541Z,17.50
2018-02-18T06:57:58.785Z,17.83
2018-02-18T07:00:25.015Z,19.42
2018-02-18T07:02:52.006Z,18.50
2018-02-18T07:05:18.285Z,17.30
2018-02-18T07:07:45.277Z,18.95
2018-02-18T07:10:11.521Z,17.45
2018-02-18T07:12:37.761Z,17.37
2018-02-18T07:15:04.019Z,19.25
2018-02-18T07:17:30.270Z,18.05
2018-02-18T07:19:57.266Z,17.23
2018-02-18T07:22:23.501Z,19.65
2018-02-18T07:24:49.766Z,17.83
2018-02-18T07:27:15.997Z,18.33
2018-02-18T07:29:42.941Z,21.25
2018-02-18T07:32:09.160Z,19.95
2018-02-18T07:34:35.398Z,19.65
2018-02-18T07:37:02.374Z,20.20
2018-02-18T07:39:28.597Z,20.17
2018-02-18T07:41:54.831Z,20.12
2018-02-18T07:44:21.143Z,19.50
2018-02-18T07:46:47.398Z,19.90
2018-02-18T07:49:13.607Z,19.48
2018-02-18T07:51:40.573Z,23.35
2018-02-18T07:54:07.528Z,20.55
2018-02-18T07:56:33.930Z,21.00
2018-02-18T07:59:00.158Z,20.52
2018-02-18T08:01:26.403Z,21.50
2018-02-18T08:03:53.373Z,21.85
2018-02-18T08:06:19.588Z,23.55
2018-02-18T08:08:45.866Z,23.70
2018-02-18T08:11:12.084Z,21.35
2018-02-18T08:13:39.368Z,22.13
2018-02-18T08:16:05.618Z,23.95
2018-02-18T08:18:31.850Z,23.35
2018-02-18T08:20:58.078Z,23.15
2018-02-18T08:23:24.342Z,24.05
2018-02-18T08:25:50.588Z,23.20
2018-02-18T08:28:16.868Z,23.83
2018-02-18T08:30:46.249Z,22.10
2018-02-18T08:33:12.474Z,25.30
2018-02-18T08:35:39.453Z,23.73
2018-02-18T08:38:05.743Z,22.35
2018-02-18T08:40:32.781Z,22.67
2018-02-18T08:42:59.013Z,22.37
2018-02-18T08:45:25.249Z,23.40
2018-02-18T08:47:52.234Z,24.45
2018-02-18T08:50:18.451Z,24.55
2018-02-18T08:52:44.711Z,24.63
2018-02-18T08:55:10.915Z,25.25
2018-02-18T08:57:37.933Z,24.23
2018-02-18T09:00:04.978Z,24.30
2018-02-18T09:02:31.307Z,23.52
2018-02-18T09:04:59.382Z,23.92
2018-02-18T09:07:26.362Z,23.17
2018-02-18T09:09:52.658Z,22.67
2018-02-18T09:12:20.739Z,21.08
2018-02-18T09:14:46.946Z,21.30
2018-02-18T09:17:14.018Z,24.02
2018-02-18T09:19:41.022Z,22.35
2018-02-18T09:22:08.046Z,21.25
2018-02-18T09:24:34.346Z,22.73
2018-02-18T09:27:01.351Z,21.45
2018-02-18T09:29:27.617Z,19.12
2018-02-18T09:31:54.582Z,19.60
2018-02-18T09:34:20.820Z,18.00
2018-02-18T09:36:47.058Z,18.00
2018-02-18T09:39:13.371Z,17.80
2018-02-18T09:41:39.655Z,18.73
2018-02-18T09:44:05.884Z,19.05
2018-02-18T09:46:32.098Z,21.55
2018-02-18T09:48:58.380Z,18.27
2018-02-18T09:51:24.625Z,17.67
2018-02-18T09:53:50.861Z,18.70
2018-02-18T09:56:17.083Z,18.75
2018-02-18T09:58:43.337Z,18.00
2018-02-18T10:01:09.595Z,15.75
2018-02-18T10:03:36.574Z,17.08
2018-02-18T10:06:03.538Z,16.50
2018-02-18T10:08:29.783Z,16.27
2018-02-18T10:10:56.873Z,15.20
2018-02-18T10:13:23.849Z,14.50
2018-02-18T10:15:50.265Z,12.70
2018-02-18T10:18:16.587Z,14.43
2018-02-18T10:20:42.805Z,13.80
2018-02-18T10:23:09.028Z,15.43
2018-02-18T10:25:35.244Z,13.67
2018-02-18T10:28:01.460Z,14.10
2018-02-18T10:30:27.712Z,13.80
2018-02-18T10:32:53.902Z,13.63
2018-02-18T10:35:20.137Z,13.13
2018-02-18T10:37:46.342Z,13.70
2018-02-18T10:40:13.301Z,11.63
2018-02-18T10:42:39.521Z,13.00
2018-02-18T10:45:05.763Z,12.10
2018-02-18T10:47:31.993Z,12.33
2018-02-18T10:49:58.217Z,11.10
2018-02-18T10:52:25.163Z,12.47
2018-02-18T10:54:51.390Z,14.20
2018-02-18T10:57:17.610Z,14.40
2018-02-18T10:59:45.302Z,14.20
2018-02-18T11:02:12.317Z,14.03
2018-02-18T11:04:39.278Z,14.30
2018-02-18T11:07:05.517Z,12.57
2018-02-18T11:09:31.738Z,12.87
2018-02-18T11:11:57.961Z,13.30
2018-02-18T11:14:24.933Z,13.93
2018-02-18T11:16:51.121Z,14.47
2018-02-18T11:19:17.394Z,14.27
2018-02-18T11:21:43.592Z,11.63
2018-02-18T11:24:09.835Z,12.37
2018-02-18T11:26:36.099Z,13.40
2018-02-18T11:29:02.317Z,13.13
2018-02-18T11:31:28.525Z,12.50
2018-02-18T11:33:54.755Z,13.63
2018-02-18T11:36:20.977Z,14.10
2018-02-18T11:38:47.189Z,13.10
2018-02-18T11:41:13.377Z,13.43
2018-02-18T11:43:39.582Z,14.17
2018-02-18T11:46:05.818Z,14.67
2018-02-18T11:48:32.042Z,13.20
2018-02-18T11:50:58.281Z,12.57
2018-02-18T11:53:24.494Z,12.70
2018-02-18T11:55:50.725Z,13.23
2018-02-18T11:58:17.011Z,15.70
2018-02-18T12:00:43.211Z,12.97
2018-02-18T12:03:10.169Z,11.93
2018-02-18T12:05:36.406Z,12.87
2018-02-18T12:08:03.372Z,13.20
2018-02-18T12:10:30.339Z,15.30
2018-02-18T12:12:56.578Z,13.93
2018-02-18T12:15:22.808Z,14.10
2018-02-18T12:17:49.837Z,12.50
2018-02-18T12:20:16.075Z,12.73
2018-02-18T12:22:42.401Z,13.97
2018-02-18T12:25:08.690Z,13.93
2018-02-18T12:27:35.673Z,13.43
2018-02-18T12:30:02.688Z,13.93
2018-02-18T12:32:29.696Z,13.47
2018-02-18T12:34:55.922Z,14.50
2018-02-18T12:37:22.897Z,14.13
2018-02-18T12:39:49.136Z,13.77
2018-02-18T12:42:16.146Z,14.43
2018-02-18T12:44:42.416Z,13.60
2018-02-18T12:47:08.703Z,13.90
2018-02-18T12:49:35.002Z,13.43
2018-02-18T12:52:02.024Z,13.13
2018-02-18T12:54:28.278Z,14.10
2018-02-18T12:56:55.259Z,15.33
2018-02-18T12:59:21.502Z,14.17
2018-02-18T13:01:47.786Z,13.30
2018-02-18T13:04:14.026Z,13.97
2018-02-18T13:06:40.284Z,13.90
2018-02-18T13:09:06.525Z,15.00
2018-02-18T13:11:32.794Z,14.80
2018-02-18T13:13:59.058Z,14.50
2018-02-18T13:16:25.309Z,13.73
2018-02-18T13:18:52.270Z,14.17
2018-02-18T13:21:18.734Z,16.50
2018-02-18T13:23:45.681Z,15.87
2018-02-18T13:26:11.941Z,16.80
2018-02-18T13:28:38.181Z,15.37
2018-02-18T13:31:04.498Z,14.63
2018-02-18T13:33:30.738Z,15.43
2018-02-18T13:35:56.987Z,14.10
2018-02-18T13:38:23.238Z,16.10
2018-02-18T13:40:49.486Z,13.80
2018-02-18T13:43:15.738Z,14.30
2018-02-18T13:45:41.999Z,15.33
2018-02-18T13:48:09.994Z,15.37
2018-02-18T13:50:36.243Z,14.40
2018-02-18T13:53:02.475Z,13.33
2018-02-18T13:55:28.721Z,14.00
2018-02-18T13:57:54.985Z,13.50
2018-02-18T14:00:21.242Z,12.77
2018-02-18T14:02:47.474Z,13.10
2018-02-18T14:05:14.466Z,14.77
2018-02-18T14:07:40.704Z,16.37
2018-02-18T14:10:06.970Z,14.83
2018-02-18T14:12:33.958Z,14.87
2018-02-18T14:15:00.209Z,13.37
2018-02-18T14:17:26.433Z,13.37
2018-02-18T14:19:52.646Z,12.87
2018-02-18T14:22:18.883Z,12.93
2018-02-18T14:24:45.086Z,13.10
2018-02-18T14:27:11.310Z,12.70
2018-02-18T14:29:37.519Z,11.90
2018-02-18T14:32:03.747Z,12.73
2018-02-18T14:34:30.682Z,12.53
2018-02-18T14:36:56.909Z,12.70
2018-02-18T14:39:23.120Z,11.97
2018-02-18T14:42:01.819Z,12.97
2018-02-18T14:44:40.470Z,13.87
2018-02-18T14:47:19.953Z,12.97
2018-02-18T14:49:59.310Z,11.77
2018-02-18T14:52:37.915Z,13.37
2018-02-18T14:55:28.645Z,13.30
2018-02-18T14:57:54.906Z,13.17
2018-02-18T15:00:21.225Z,13.40
2018-02-18T15:02:47.515Z,12.93
2018-02-18T15:05:13.755Z,12.50
2018-02-18T15:07:39.970Z,12.07
2018-02-18T15:10:06.222Z,11.47
2018-02-18T15:12:32.442Z,10.40
2018-02-18T15:14:58.719Z,11.63
2018-02-18T15:17:24.953Z,11.53
2018-02-18T15:19:53.034Z,11.63
2018-02-18T15:22:19.343Z,10.97
2018-02-18T15:24:45.788Z,10.17
2018-02-18T15:27:12.115Z,10.87
2018-02-18T15:29:38.468Z,11.33
2018-02-18T15:32:05.504Z,9.90
2018-02-18T15:34:32.584Z,11.63
2018-02-18T15:36:58.982Z,11.43
2018-02-18T15:39:26.341Z,11.43
2018-02-18T15:41:53.310Z,12.13
2018-02-18T15:44:20.380Z,12.13
2018-02-18T15:46:46.662Z,11.85
2018-02-18T15:49:12.897Z,11.60
2018-02-18T15:51:39.274Z,13.23
2018-02-18T15:54:07.619Z,11.68
2018-02-18T15:56:33.903Z,14.20
2018-02-18T15:59:00.160Z,12.80
2018-02-18T16:01:26.417Z,17.25
2018-02-18T16:03:52.661Z,13.52
2018-02-18T16:06:18.894Z,12.40
2018-02-18T16:08:45.182Z,13.90
2018-02-18T16:11:11.609Z,13.60
2018-02-18T16:13:38.938Z,14.35
2018-02-18T16:16:05.194Z,12.73
2018-02-18T16:18:31.429Z,12.55
2018-02-18T16:20:58.422Z,14.70
2018-02-18T16:23:24.811Z,13.85
2018-02-18T16:25:51.240Z,14.43
2018-02-18T16:28:17.550Z,14.90
2018-02-18T16:30:43.798Z,15.52
2018-02-18T16:33:10.854Z,13.77
2018-02-18T16:35:37.084Z,13.60
2018-02-18T16:38:03.302Z,14.57
2018-02-18T16:40:29.531Z,15.27
2018-02-18T16:42:55.798Z,14.23
2018-02-18T16:45:22.810Z,13.62
2018-02-18T16:47:49.811Z,16.37
2018-02-18T16:50:16.058Z,15.57
2018-02-18T16:52:42.269Z,16.08
2018-02-18T16:55:08.495Z,16.30
2018-02-18T16:57:34.782Z,15.57
2018-02-18T17:00:01.000Z,16.87
2018-02-18T17:02:27.337Z,16.27
2018-02-18T17:04:53.568Z,16.70
2018-02-18T17:07:19.812Z,16.90
2018-02-18T17:09:46.094Z,16.77
2018-02-18T17:12:13.130Z,15.73
2018-02-18T17:14:40.271Z,15.55
2018-02-18T17:17:07.270Z,15.10
2018-02-18T17:19:34.267Z,16.45
2018-02-18T17:22:00.521Z,15.60
2018-02-18T17:24:27.597Z,15.93
2018-02-18T17:26:54.711Z,15.77
2018-02-18T17:29:20.975Z,16.98
2018-02-18T17:31:47.991Z,15.43
2018-02-18T17:34:14.230Z,18.77
2018-02-18T17:36:41.534Z,19.30
2018-02-18T17:39:07.872Z,18.95
2018-02-18T17:41:34.870Z,17.98
2018-02-18T17:44:01.165Z,17.20
2018-02-18T17:46:27.466Z,16.42
2018-02-18T17:48:53.837Z,18.05
2018-02-18T17:51:20.119Z,17.65
2018-02-18T17:53:46.350Z,17.27
2018-02-18T17:56:14.411Z,19.05
2018-02-18T17:58:40.682Z,19.85
2018-02-18T18:01:07.074Z,18.00
2018-02-18T18:03:33.302Z,19.20
2018-02-18T18:06:00.545Z,20.00
2018-02-18T18:08:26.839Z,16.75
2018-02-18T18:10:53.821Z,17.33
2018-02-18T18:13:20.055Z,18.55
2018-02-18T18:15:46.401Z,16.37
2018-02-18T18:18:13.395Z,21.58
2018-02-18T18:20:39.641Z,20.75
2018-02-18T18:23:05.903Z,20.33
2018-02-18T18:25:32.126Z,18.95
2018-02-18T18:27:59.115Z,18.60
2018-02-18T18:30:26.057Z,17.65
2018-02-18T18:32:53.023Z,19.05
2018-02-18T18:35:19.272Z,17.35
2018-02-18T18:37:45.506Z,16.80
2018-02-18T18:40:11.747Z,21.75
2018-02-18T18:42:37.971Z,18.77
2018-02-18T18:45:04.200Z,18.48
2018-02-18T18:47:30.587Z,17.15
2018-02-18T18:49:56.822Z,20.33
2018-02-18T18:52:23.063Z,15.48
2018-02-18T18:54:49.337Z,16.25
2018-02-18T18:57:15.660Z,15.95
2018-02-18T18:59:41.876Z,16.50
2018-02-18T19:02:08.111Z,14.98
2018-02-18T19:04:34.449Z,15.60
2018-02-18T19:07:02.722Z,14.80
2018-02-18T19:09:28.934Z,15.65
2018-02-18T19:11:55.184Z,15.68
2018-02-18T19:14:21.509Z,16.87
2018-02-18T19:16:47.770Z,16.45
2018-02-18T19:19:13.969Z,13.30
2018-02-18T19:21:40.232Z,14.32
2018-02-18T19:24:07.258Z,15.60
2018-02-18T19:26:33.511Z,15.02
2018-02-18T19:29:00.833Z,14.45
2018-02-18T19:31:27.226Z,15.98
2018-02-18T19:33:53.462Z,15.43
2018-02-18T19:36:19.783Z,14.60
2018-02-18T19:38:47.771Z,17.42
2018-02-18T19:41:14.011Z,16.05
2018-02-18T19:43:40.362Z,15.55
2018-02-18T19:46:06.695Z,15.48
2018-02-18T19:48:32.931Z,15.40
2018-02-18T19:50:59.142Z,16.85
2018-02-18T19:53:25.445Z,15.55
2018-02-18T19:55:51.725Z,15.57
2018-02-18T19:58:18.710Z,17.10
2018-02-18T20:00:44.947Z,14.65
2018-02-18T20:03:11.223Z,15.65
2018-02-18T20:05:38.214Z,16.98
2018-02-18T20:08:04.500Z,15.50
2018-02-18T20:10:31.538Z,15.13
2018-02-18T20:12:57.810Z,17.58
2018-02-18T20:15:24.869Z,17.58
2018-02-18T20:17:51.869Z,15.70
2018-02-18T20:20:18.091Z,16.87
2018-02-18T20:22:44.382Z,16.40
2018-02-18T20:25:10.614Z,17.87
2018-02-18T20:27:37.914Z,16.00
2018-02-18T20:30:04.942Z,17.75
2018-02-18T20:32:31.233Z,16.52
2018-02-18T20:34:57.454Z,17.27
2018-02-18T20:37:23.743Z,17.30
2018-02-18T20:39:50.733Z,18.83
2018-02-18T20:42:17.739Z,18.05
2018-02-18T20:44:43.957Z,17.08
2018-02-18T20:47:10.178Z,20.65
2018-02-18T20:49:36.521Z,19.45
2018-02-18T20:52:02.862Z,18.30
2018-02-18T20:54:29.152Z,18.30
2018-02-18T20:56:55.414Z,19.48
2018-02-18T20:59:21.629Z,16.90
2018-02-18T21:01:47.916Z,16.95
2018-02-18T21:04:15.781Z,18.15
2018-02-18T21:06:42.071Z,20.12
2018-02-18T21:09:08.350Z,17.30
2018-02-18T21:11:34.593Z,16.70
2018-02-18T21:14:01.606Z,18.25
2018-02-18T21:16:29.007Z,17.65
2018-02-18T21:18:55.213Z,16.87
2018-02-18T21:21:21.441Z,17.45
2018-02-18T21:23:47.681Z,18.27
2018-02-18T21:26:13.960Z,17.60
2018-02-18T21:28:40.156Z,19.52
2018-02-18T21:31:06.365Z,18.40
2018-02-18T21:33:32.618Z,19.58
2018-02-18T21:35:58.825Z,16.65
2018-02-18T21:38:25.783Z,17.55
2018-02-18T21:40:52.027Z,16.87
2018-02-18T21:43:18.241Z,17.67
2018-02-18T21:45:44.434Z,17.98
2018-02-18T21:48:10.677Z,18.52
2018-02-18T21:50:36.898Z,19.20
2018-02-18T21:53:03.143Z,18.05
2018-02-18T21:55:29.393Z,18.98
2018-02-18T21:57:55.649Z,18.00
2018-02-18T22:00:21.874Z,18.90
2018-02-18T22:02:48.111Z,18.25
2018-02-18T22:05:15.113Z,17.40
2018-02-18T22:07:41.327Z,17.58
2018-02-18T22:10:07.542Z,18.40
2018-02-18T22:12:33.842Z,18.12
2018-02-18T22:15:00.822Z,18.90
2018-02-18T22:17:27.769Z,19.00
2018-02-18T22:19:54.009Z,18.70
2018-02-18T22:22:20.237Z,18.30
2018-02-18T22:24:46.482Z,18.85
2018-02-18T22:27:12.737Z,17.85
2018-02-18T22:29:38.964Z,18.90
2018-02-18T22:32:05.197Z,20.50
2018-02-18T22:34:31.396Z,23.05
2018-02-18T22:36:57.659Z,20.75
2018-02-18T22:39:24.674Z,21.23
2018-02-18T22:41:51.997Z,19.02
2018-02-18T22:44:18.233Z,19.08
2018-02-18T22:46:44.538Z,18.85
2018-02-18T22:49:10.795Z,19.77
2018-02-18T22:51:37.021Z,20.52
2018-02-18T22:54:03.249Z,20.17
2018-02-18T22:56:30.570Z,20.88
2018-02-18T22:58:56.806Z,20.50
2018-02-18T23:01:23.774Z,21.02
2018-02-18T23:03:50.774Z,20.05
2018-02-18T23:06:16.969Z,19.73
2018-02-18T23:08:43.306Z,19.05
2018-02-18T23:11:09.501Z,20.02
2018-02-18T23:13:35.866Z,21.02
2018-02-18T23:18:19.705Z,20.95
2018-02-18T23:20:58.196Z,21.33
2018-02-18T23:23:25.728Z,20.88
2018-02-18T23:25:52.760Z,21.80
2018-02-18T23:28:19.098Z,20.90
2018-02-18T23:30:45.327Z,20.65
2018-02-18T23:33:11.561Z,22.95
2018-02-18T23:35:37.791Z,21.42
2018-02-18T23:38:04.113Z,20.77
2018-02-18T23:40:30.333Z,21.27
2018-02-18T23:42:56.583Z,20.33
2018-02-18T23:45:22.832Z,20.80
2018-02-18T23:47:49.797Z,19.90
2018-02-18T23:50:16.030Z,19.75
2018-02-18T23:52:42.279Z,20.35
2018-02-18T23:55:08.490Z,21.80
2018-02-18T23:57:34.699Z,20.58
